Weather at Cowley Airport

Public forecast

Using degrees Celsius for public forecast. Weather courtesy of forecast.io.

Closest aviation weather report (METAR) to Cowley Airport

Closest report is Pincher Creek Airport, 7.9 nm (14.7 km) SSE.

2024/05/30 03:00 (retrieved 1 hour ago)

CZPC 300300Z AUTO 27024G30KT 9SM FEW170 05/01 A2994 RMK SLP152

Closest aviation forecast (TAF) to Cowley Airport

Forecast is more than 6 hours old.

Closest forecast is Malmstrom Air Force Base, 172.4 nm (319.2 km) SE.

2024/05/29 21:03 (retrieved 7 hours ago)

TAF KGFA 292100Z 2921/3103 27012G18KT 9999 BKN090 BKN120 QNH2991INS BECMG 3004/3005 26009KT 9999 SCT080 BKN180 QNH3002INS BECMG 3014/3015 27015G25KT 9999 SCT080 QNH3007INS BECMG 3102/3103 28009KT 9999 SCT080 QNH3006INS TX18/2922Z TN07/3012Z